sensor_id;sensor_type;location;lat;lon;timestamp;P1;durP1;ratioP1;P2;durP2;ratioP2
52268;SDS011;38224;50.950;4.100;2022-08-21T00:00:11;9.43;;;3.03;;
52268;SDS011;38224;50.950;4.100;2022-08-21T00:02:43;13.65;;;2.72;;
52268;SDS011;38224;50.950;4.100;2022-08-21T00:05:09;8.85;;;3.08;;
52268;SDS011;38224;50.950;4.100;2022-08-21T00:07:34;8.60;;;2.50;;
52268;SDS011;38224;50.950;4.100;2022-08-21T00:09:59;12.67;;;2.70;;
52268;SDS011;38224;50.950;4.100;2022-08-21T00:12:25;10.23;;;2.78;;
52268;SDS011;38224;50.950;4.100;2022-08-21T00:14:50;12.68;;;3.13;;
52268;SDS011;38224;50.950;4.100;2022-08-21T00:17:16;10.70;;;2.50;;
52268;SDS011;38224;50.950;4.100;2022-08-21T00:19:41;12.75;;;3.08;;
52268;SDS011;38224;50.950;4.100;2022-08-21T00:22:06;15.60;;;3.33;;
52268;SDS011;38224;50.950;4.100;2022-08-21T00:24:32;10.05;;;2.80;;
52268;SDS011;38224;50.950;4.100;2022-08-21T00:26:57;12.03;;;2.50;;
52268;SDS011;38224;50.950;4.100;2022-08-21T00:29:23;10.98;;;3.08;;
52268;SDS011;38224;50.950;4.100;2022-08-21T00:31:49;11.63;;;2.35;;
52268;SDS011;38224;50.950;4.100;2022-08-21T00:34:14;6.60;;;2.37;;
52268;SDS011;38224;50.950;4.100;2022-08-21T00:36:40;10.93;;;2.53;;
52268;SDS011;38224;50.950;4.100;2022-08-21T00:39:06;11.15;;;2.45;;
52268;SDS011;38224;50.950;4.100;2022-08-21T00:41:32;8.88;;;2.78;;
52268;SDS011;38224;50.950;4.100;2022-08-21T00:43:57;13.80;;;2.63;;
52268;SDS011;38224;50.950;4.100;2022-08-21T00:46:23;10.38;;;2.53;;
52268;SDS011;38224;50.950;4.100;2022-08-21T00:48:48;11.65;;;2.88;;
52268;SDS011;38224;50.950;4.100;2022-08-21T00:51:15;11.60;;;2.70;;
52268;SDS011;38224;50.950;4.100;2022-08-21T00:53:47;11.52;;;3.20;;
52268;SDS011;38224;50.950;4.100;2022-08-21T00:56:12;10.73;;;2.70;;
52268;SDS011;38224;50.950;4.100;2022-08-21T00:58:39;10.70;;;2.80;;
52268;SDS011;38224;50.950;4.100;2022-08-21T01:01:06;13.23;;;3.00;;
52268;SDS011;38224;50.950;4.100;2022-08-21T01:03:32;7.63;;;2.40;;
52268;SDS011;38224;50.950;4.100;2022-08-21T01:05:57;8.32;;;2.75;;
52268;SDS011;38224;50.950;4.100;2022-08-21T01:08:23;7.73;;;2.43;;
52268;SDS011;38224;50.950;4.100;2022-08-21T01:10:48;15.13;;;2.90;;
52268;SDS011;38224;50.950;4.100;2022-08-21T01:13:14;9.40;;;3.15;;
52268;SDS011;38224;50.950;4.100;2022-08-21T01:15:42;12.80;;;3.28;;
52268;SDS011;38224;50.950;4.100;2022-08-21T01:18:08;9.50;;;2.72;;
52268;SDS011;38224;50.950;4.100;2022-08-21T01:20:35;10.73;;;2.80;;
52268;SDS011;38224;50.950;4.100;2022-08-21T01:23:01;10.82;;;2.90;;
52268;SDS011;38224;50.950;4.100;2022-08-21T01:25:27;10.80;;;3.50;;
52268;SDS011;38224;50.950;4.100;2022-08-21T01:27:52;7.68;;;3.47;;
52268;SDS011;38224;50.950;4.100;2022-08-21T01:30:19;15.83;;;4.10;;
52268;SDS011;38224;50.950;4.100;2022-08-21T01:32:45;17.85;;;3.55;;
52268;SDS011;38224;50.950;4.100;2022-08-21T01:35:12;13.02;;;3.78;;
52268;SDS011;38224;50.950;4.100;2022-08-21T01:37:38;11.40;;;3.20;;
52268;SDS011;38224;50.950;4.100;2022-08-21T01:40:04;14.18;;;3.28;;
52268;SDS011;38224;50.950;4.100;2022-08-21T01:42:29;16.85;;;3.53;;
52268;SDS011;38224;50.950;4.100;2022-08-21T01:44:54;9.43;;;3.07;;
52268;SDS011;38224;50.950;4.100;2022-08-21T01:47:20;12.40;;;3.97;;
52268;SDS011;38224;50.950;4.100;2022-08-21T01:49:45;16.50;;;3.20;;
52268;SDS011;38224;50.950;4.100;2022-08-21T01:52:10;16.55;;;4.40;;
52268;SDS011;38224;50.950;4.100;2022-08-21T01:54:36;10.77;;;3.22;;
52268;SDS011;38224;50.950;4.100;2022-08-21T01:57:02;9.80;;;3.40;;
52268;SDS011;38224;50.950;4.100;2022-08-21T01:59:28;9.23;;;3.25;;
52268;SDS011;38224;50.950;4.100;2022-08-21T02:01:53;12.00;;;3.70;;
52268;SDS011;38224;50.950;4.100;2022-08-21T02:04:21;13.93;;;3.38;;
52268;SDS011;38224;50.950;4.100;2022-08-21T02:06:47;11.77;;;3.25;;
52268;SDS011;38224;50.950;4.100;2022-08-21T02:09:12;9.85;;;3.50;;
52268;SDS011;38224;50.950;4.100;2022-08-21T02:11:39;9.05;;;3.13;;
52268;SDS011;38224;50.950;4.100;2022-08-21T02:14:05;9.95;;;3.28;;
52268;SDS011;38224;50.950;4.100;2022-08-21T02:16:31;9.57;;;2.78;;
52268;SDS011;38224;50.950;4.100;2022-08-21T02:18:56;11.57;;;2.93;;
52268;SDS011;38224;50.950;4.100;2022-08-21T02:21:21;9.80;;;3.07;;
52268;SDS011;38224;50.950;4.100;2022-08-21T02:23:46;9.87;;;3.10;;
52268;SDS011;38224;50.950;4.100;2022-08-21T02:26:12;10.83;;;3.30;;
52268;SDS011;38224;50.950;4.100;2022-08-21T02:28:37;12.17;;;3.53;;
52268;SDS011;38224;50.950;4.100;2022-08-21T02:31:03;11.27;;;2.95;;
52268;SDS011;38224;50.950;4.100;2022-08-21T02:33:29;11.57;;;3.40;;
52268;SDS011;38224;50.950;4.100;2022-08-21T02:35:54;12.50;;;3.50;;
52268;SDS011;38224;50.950;4.100;2022-08-21T02:38:21;12.23;;;3.00;;
52268;SDS011;38224;50.950;4.100;2022-08-21T02:40:48;10.88;;;2.58;;
52268;SDS011;38224;50.950;4.100;2022-08-21T02:43:14;10.73;;;3.03;;
52268;SDS011;38224;50.950;4.100;2022-08-21T02:45:40;9.57;;;2.50;;
52268;SDS011;38224;50.950;4.100;2022-08-21T02:48:07;10.15;;;2.65;;
52268;SDS011;38224;50.950;4.100;2022-08-21T02:50:37;10.45;;;3.38;;
52268;SDS011;38224;50.950;4.100;2022-08-21T02:53:04;12.95;;;3.45;;
52268;SDS011;38224;50.950;4.100;2022-08-21T02:55:31;10.30;;;2.40;;
52268;SDS011;38224;50.950;4.100;2022-08-21T02:57:57;11.45;;;2.70;;
52268;SDS011;38224;50.950;4.100;2022-08-21T03:00:23;8.70;;;2.58;;
52268;SDS011;38224;50.950;4.100;2022-08-21T03:02:49;13.48;;;3.20;;
52268;SDS011;38224;50.950;4.100;2022-08-21T03:05:15;19.63;;;3.30;;
52268;SDS011;38224;50.950;4.100;2022-08-21T03:07:41;14.23;;;3.13;;
52268;SDS011;38224;50.950;4.100;2022-08-21T03:10:06;12.32;;;3.25;;
52268;SDS011;38224;50.950;4.100;2022-08-21T03:12:32;12.68;;;3.10;;
52268;SDS011;38224;50.950;4.100;2022-08-21T03:14:57;10.37;;;3.07;;
52268;SDS011;38224;50.950;4.100;2022-08-21T03:17:23;16.25;;;2.80;;
52268;SDS011;38224;50.950;4.100;2022-08-21T03:19:49;9.63;;;2.75;;
52268;SDS011;38224;50.950;4.100;2022-08-21T03:22:14;12.32;;;3.25;;
52268;SDS011;38224;50.950;4.100;2022-08-21T03:24:39;9.37;;;3.23;;
52268;SDS011;38224;50.950;4.100;2022-08-21T03:27:05;11.63;;;2.85;;
52268;SDS011;38224;50.950;4.100;2022-08-21T03:29:30;13.93;;;2.90;;
52268;SDS011;38224;50.950;4.100;2022-08-21T03:31:55;17.42;;;3.30;;
52268;SDS011;38224;50.950;4.100;2022-08-21T03:34:20;10.47;;;3.80;;
52268;SDS011;38224;50.950;4.100;2022-08-21T03:36:46;14.88;;;3.28;;
52268;SDS011;38224;50.950;4.100;2022-08-21T03:39:11;11.75;;;3.10;;
52268;SDS011;38224;50.950;4.100;2022-08-21T03:41:37;9.23;;;2.97;;
52268;SDS011;38224;50.950;4.100;2022-08-21T03:44:02;12.83;;;3.07;;
52268;SDS011;38224;50.950;4.100;2022-08-21T03:46:27;12.18;;;3.20;;
52268;SDS011;38224;50.950;4.100;2022-08-21T03:48:53;11.07;;;3.20;;
52268;SDS011;38224;50.950;4.100;2022-08-21T03:51:18;13.33;;;2.93;;
52268;SDS011;38224;50.950;4.100;2022-08-21T03:53:43;12.82;;;3.95;;
52268;SDS011;38224;50.950;4.100;2022-08-21T03:56:09;11.23;;;3.33;;
52268;SDS011;38224;50.950;4.100;2022-08-21T03:58:35;14.07;;;3.42;;
52268;SDS011;38224;50.950;4.100;2022-08-21T04:01:01;9.43;;;3.50;;
52268;SDS011;38224;50.950;4.100;2022-08-21T04:03:27;10.90;;;3.00;;
52268;SDS011;38224;50.950;4.100;2022-08-21T04:05:52;10.60;;;3.20;;
52268;SDS011;38224;50.950;4.100;2022-08-21T04:08:18;13.33;;;3.60;;
52268;SDS011;38224;50.950;4.100;2022-08-21T04:10:47;13.15;;;3.30;;
52268;SDS011;38224;50.950;4.100;2022-08-21T04:13:13;8.93;;;3.85;;
52268;SDS011;38224;50.950;4.100;2022-08-21T04:15:39;12.27;;;3.72;;
52268;SDS011;38224;50.950;4.100;2022-08-21T04:18:05;12.95;;;3.67;;
52268;SDS011;38224;50.950;4.100;2022-08-21T04:20:31;10.80;;;3.85;;
52268;SDS011;38224;50.950;4.100;2022-08-21T04:22:56;13.75;;;3.70;;
52268;SDS011;38224;50.950;4.100;2022-08-21T04:25:22;10.30;;;3.67;;
52268;SDS011;38224;50.950;4.100;2022-08-21T04:27:49;14.52;;;4.50;;
52268;SDS011;38224;50.950;4.100;2022-08-21T04:30:14;16.08;;;4.13;;
52268;SDS011;38224;50.950;4.100;2022-08-21T04:32:47;13.80;;;4.25;;
52268;SDS011;38224;50.950;4.100;2022-08-21T04:35:15;8.63;;;4.05;;
52268;SDS011;38224;50.950;4.100;2022-08-21T04:37:41;12.00;;;3.97;;
52268;SDS011;38224;50.950;4.100;2022-08-21T04:40:07;11.73;;;3.67;;
52268;SDS011;38224;50.950;4.100;2022-08-21T04:42:40;11.55;;;3.97;;
52268;SDS011;38224;50.950;4.100;2022-08-21T04:45:06;14.73;;;4.07;;
52268;SDS011;38224;50.950;4.100;2022-08-21T04:47:31;13.55;;;4.30;;
52268;SDS011;38224;50.950;4.100;2022-08-21T04:49:56;9.00;;;3.43;;
52268;SDS011;38224;50.950;4.100;2022-08-21T04:52:21;14.53;;;4.83;;
52268;SDS011;38224;50.950;4.100;2022-08-21T04:54:47;10.90;;;4.03;;
52268;SDS011;38224;50.950;4.100;2022-08-21T04:57:13;14.80;;;4.55;;
52268;SDS011;38224;50.950;4.100;2022-08-21T04:59:45;10.35;;;4.15;;
52268;SDS011;38224;50.950;4.100;2022-08-21T05:02:12;9.07;;;3.40;;
52268;SDS011;38224;50.950;4.100;2022-08-21T05:04:40;12.48;;;4.15;;
52268;SDS011;38224;50.950;4.100;2022-08-21T05:07:09;14.55;;;4.28;;
52268;SDS011;38224;50.950;4.100;2022-08-21T05:09:35;8.13;;;3.63;;
52268;SDS011;38224;50.950;4.100;2022-08-21T05:12:02;13.20;;;3.97;;
52268;SDS011;38224;50.950;4.100;2022-08-21T05:14:27;12.23;;;3.58;;
52268;SDS011;38224;50.950;4.100;2022-08-21T05:16:52;12.40;;;3.90;;
52268;SDS011;38224;50.950;4.100;2022-08-21T05:19:18;10.87;;;3.73;;
52268;SDS011;38224;50.950;4.100;2022-08-21T05:21:44;13.77;;;3.70;;
52268;SDS011;38224;50.950;4.100;2022-08-21T05:24:09;11.45;;;2.88;;
52268;SDS011;38224;50.950;4.100;2022-08-21T05:26:35;10.02;;;3.00;;
52268;SDS011;38224;50.950;4.100;2022-08-21T05:29:01;9.07;;;2.60;;
52268;SDS011;38224;50.950;4.100;2022-08-21T05:31:27;9.07;;;2.92;;
52268;SDS011;38224;50.950;4.100;2022-08-21T05:33:52;12.03;;;3.33;;
52268;SDS011;38224;50.950;4.100;2022-08-21T05:36:18;8.48;;;3.08;;
52268;SDS011;38224;50.950;4.100;2022-08-21T05:38:43;5.90;;;2.40;;
52268;SDS011;38224;50.950;4.100;2022-08-21T05:41:08;9.70;;;2.80;;
52268;SDS011;38224;50.950;4.100;2022-08-21T05:43:34;7.32;;;2.60;;
52268;SDS011;38224;50.950;4.100;2022-08-21T05:46:01;7.22;;;2.38;;
52268;SDS011;38224;50.950;4.100;2022-08-21T05:48:27;7.10;;;2.40;;
52268;SDS011;38224;50.950;4.100;2022-08-21T05:50:52;9.10;;;2.73;;
52268;SDS011;38224;50.950;4.100;2022-08-21T05:53:18;13.07;;;2.63;;
52268;SDS011;38224;50.950;4.100;2022-08-21T05:55:43;10.38;;;2.55;;
52268;SDS011;38224;50.950;4.100;2022-08-21T05:58:08;8.07;;;2.65;;
52268;SDS011;38224;50.950;4.100;2022-08-21T06:00:34;9.00;;;2.50;;
52268;SDS011;38224;50.950;4.100;2022-08-21T06:02:59;10.32;;;2.30;;
52268;SDS011;38224;50.950;4.100;2022-08-21T06:05:25;8.25;;;2.70;;
52268;SDS011;38224;50.950;4.100;2022-08-21T06:07:51;6.72;;;2.72;;
52268;SDS011;38224;50.950;4.100;2022-08-21T06:10:16;13.50;;;2.97;;
52268;SDS011;38224;50.950;4.100;2022-08-21T06:12:42;10.38;;;3.03;;
52268;SDS011;38224;50.950;4.100;2022-08-21T06:15:07;7.83;;;2.27;;
52268;SDS011;38224;50.950;4.100;2022-08-21T06:17:32;10.75;;;2.60;;
52268;SDS011;38224;50.950;4.100;2022-08-21T06:19:58;7.60;;;2.17;;
52268;SDS011;38224;50.950;4.100;2022-08-21T06:22:23;9.80;;;2.53;;
52268;SDS011;38224;50.950;4.100;2022-08-21T06:24:48;7.77;;;2.27;;
52268;SDS011;38224;50.950;4.100;2022-08-21T06:27:13;8.60;;;2.23;;
52268;SDS011;38224;50.950;4.100;2022-08-21T06:29:40;10.30;;;2.53;;
52268;SDS011;38224;50.950;4.100;2022-08-21T06:32:05;8.70;;;2.40;;
52268;SDS011;38224;50.950;4.100;2022-08-21T06:34:37;9.82;;;2.20;;
52268;SDS011;38224;50.950;4.100;2022-08-21T06:37:03;9.18;;;2.35;;
52268;SDS011;38224;50.950;4.100;2022-08-21T06:39:28;5.95;;;2.20;;
52268;SDS011;38224;50.950;4.100;2022-08-21T06:41:54;7.95;;;2.58;;
52268;SDS011;38224;50.950;4.100;2022-08-21T06:44:20;8.48;;;2.35;;
52268;SDS011;38224;50.950;4.100;2022-08-21T06:46:45;5.60;;;2.23;;
52268;SDS011;38224;50.950;4.100;2022-08-21T06:49:10;12.17;;;2.37;;
52268;SDS011;38224;50.950;4.100;2022-08-21T06:51:35;6.93;;;2.10;;
52268;SDS011;38224;50.950;4.100;2022-08-21T06:54:01;7.80;;;2.30;;
52268;SDS011;38224;50.950;4.100;2022-08-21T06:56:26;8.93;;;2.47;;
52268;SDS011;38224;50.950;4.100;2022-08-21T06:58:51;8.57;;;2.33;;
52268;SDS011;38224;50.950;4.100;2022-08-21T07:01:17;9.05;;;2.30;;
52268;SDS011;38224;50.950;4.100;2022-08-21T07:03:42;10.20;;;2.30;;
52268;SDS011;38224;50.950;4.100;2022-08-21T07:06:08;14.40;;;2.58;;
52268;SDS011;38224;50.950;4.100;2022-08-21T07:08:34;10.93;;;2.58;;
52268;SDS011;38224;50.950;4.100;2022-08-21T07:11:00;11.50;;;2.10;;
52268;SDS011;38224;50.950;4.100;2022-08-21T07:13:26;13.18;;;2.53;;
52268;SDS011;38224;50.950;4.100;2022-08-21T07:15:52;6.47;;;1.92;;
52268;SDS011;38224;50.950;4.100;2022-08-21T07:18:17;12.75;;;2.42;;
52268;SDS011;38224;50.950;4.100;2022-08-21T07:20:42;8.25;;;2.08;;
52268;SDS011;38224;50.950;4.100;2022-08-21T07:23:09;7.57;;;2.10;;
52268;SDS011;38224;50.950;4.100;2022-08-21T07:25:35;10.60;;;2.42;;
52268;SDS011;38224;50.950;4.100;2022-08-21T07:28:01;5.65;;;1.90;;
52268;SDS011;38224;50.950;4.100;2022-08-21T07:30:26;7.65;;;2.13;;
52268;SDS011;38224;50.950;4.100;2022-08-21T07:32:52;7.68;;;2.20;;
52268;SDS011;38224;50.950;4.100;2022-08-21T07:35:18;10.88;;;2.50;;
52268;SDS011;38224;50.950;4.100;2022-08-21T07:37:43;6.85;;;2.30;;
52268;SDS011;38224;50.950;4.100;2022-08-21T07:40:09;13.50;;;2.83;;
52268;SDS011;38224;50.950;4.100;2022-08-21T07:42:34;9.35;;;2.38;;
52268;SDS011;38224;50.950;4.100;2022-08-21T07:44:59;9.53;;;2.50;;
52268;SDS011;38224;50.950;4.100;2022-08-21T07:47:24;11.00;;;2.37;;
52268;SDS011;38224;50.950;4.100;2022-08-21T07:49:50;8.37;;;2.30;;
52268;SDS011;38224;50.950;4.100;2022-08-21T07:52:15;10.30;;;2.50;;
52268;SDS011;38224;50.950;4.100;2022-08-21T07:54:40;7.85;;;2.25;;
52268;SDS011;38224;50.950;4.100;2022-08-21T07:57:06;10.90;;;2.20;;
52268;SDS011;38224;50.950;4.100;2022-08-21T07:59:31;11.53;;;2.50;;
52268;SDS011;38224;50.950;4.100;2022-08-21T08:01:56;9.47;;;2.10;;
52268;SDS011;38224;50.950;4.100;2022-08-21T08:04:21;7.67;;;2.40;;
52268;SDS011;38224;50.950;4.100;2022-08-21T08:06:47;15.43;;;2.57;;
52268;SDS011;38224;50.950;4.100;2022-08-21T08:09:12;9.97;;;2.30;;
52268;SDS011;38224;50.950;4.100;2022-08-21T08:11:37;10.17;;;2.20;;
52268;SDS011;38224;50.950;4.100;2022-08-21T08:14:03;12.98;;;2.60;;
52268;SDS011;38224;50.950;4.100;2022-08-21T08:16:29;12.40;;;2.47;;
52268;SDS011;38224;50.950;4.100;2022-08-21T08:18:54;7.93;;;2.07;;
52268;SDS011;38224;50.950;4.100;2022-08-21T08:21:20;8.35;;;2.55;;
52268;SDS011;38224;50.950;4.100;2022-08-21T08:23:46;5.43;;;1.65;;
52268;SDS011;38224;50.950;4.100;2022-08-21T08:26:11;9.77;;;2.40;;
52268;SDS011;38224;50.950;4.100;2022-08-21T08:28:36;16.17;;;2.55;;
52268;SDS011;38224;50.950;4.100;2022-08-21T08:31:02;13.45;;;2.72;;
52268;SDS011;38224;50.950;4.100;2022-08-21T08:33:27;17.00;;;2.55;;
52268;SDS011;38224;50.950;4.100;2022-08-21T08:35:53;10.05;;;2.42;;
52268;SDS011;38224;50.950;4.100;2022-08-21T08:38:19;7.00;;;2.20;;
52268;SDS011;38224;50.950;4.100;2022-08-21T08:43:13;9.95;;;1.90;;
52268;SDS011;38224;50.950;4.100;2022-08-21T08:45:39;14.50;;;2.90;;
52268;SDS011;38224;50.950;4.100;2022-08-21T08:48:06;8.73;;;2.33;;
52268;SDS011;38224;50.950;4.100;2022-08-21T08:53:05;7.60;;;2.45;;
52268;SDS011;38224;50.950;4.100;2022-08-21T08:55:34;8.63;;;2.00;;
52268;SDS011;38224;50.950;4.100;2022-08-21T08:58:00;10.65;;;2.25;;
52268;SDS011;38224;50.950;4.100;2022-08-21T09:00:27;10.55;;;2.33;;
52268;SDS011;38224;50.950;4.100;2022-08-21T09:02:54;7.03;;;2.30;;
52268;SDS011;38224;50.950;4.100;2022-08-21T09:05:21;9.73;;;2.42;;
52268;SDS011;38224;50.950;4.100;2022-08-21T09:07:52;9.30;;;2.13;;
52268;SDS011;38224;50.950;4.100;2022-08-21T09:10:20;11.43;;;2.35;;
52268;SDS011;38224;50.950;4.100;2022-08-21T09:15:46;8.02;;;1.80;;
52268;SDS011;38224;50.950;4.100;2022-08-21T09:21:14;10.98;;;2.40;;
52268;SDS011;38224;50.950;4.100;2022-08-21T09:23:43;9.18;;;2.33;;
52268;SDS011;38224;50.950;4.100;2022-08-21T09:26:15;8.93;;;2.42;;
52268;SDS011;38224;50.950;4.100;2022-08-21T09:28:41;10.07;;;2.45;;
52268;SDS011;38224;50.950;4.100;2022-08-21T09:31:08;10.57;;;2.72;;
52268;SDS011;38224;50.950;4.100;2022-08-21T09:33:36;11.95;;;2.63;;
52268;SDS011;38224;50.950;4.100;2022-08-21T09:36:01;10.37;;;2.27;;
52268;SDS011;38224;50.950;4.100;2022-08-21T09:38:31;9.07;;;2.25;;
52268;SDS011;38224;50.950;4.100;2022-08-21T09:41:02;10.25;;;2.03;;
52268;SDS011;38224;50.950;4.100;2022-08-21T09:43:28;9.00;;;2.30;;
52268;SDS011;38224;50.950;4.100;2022-08-21T09:46:05;6.63;;;2.30;;
52268;SDS011;38224;50.950;4.100;2022-08-21T09:48:38;12.10;;;2.75;;
52268;SDS011;38224;50.950;4.100;2022-08-21T09:51:08;8.90;;;2.17;;
52268;SDS011;38224;50.950;4.100;2022-08-21T09:53:34;10.65;;;2.22;;
52268;SDS011;38224;50.950;4.100;2022-08-21T09:56:02;15.60;;;2.90;;
52268;SDS011;38224;50.950;4.100;2022-08-21T09:58:48;7.55;;;2.03;;
52268;SDS011;38224;50.950;4.100;2022-08-21T10:03:41;14.88;;;2.65;;
52268;SDS011;38224;50.950;4.100;2022-08-21T10:06:07;9.00;;;1.98;;
52268;SDS011;38224;50.950;4.100;2022-08-21T10:08:35;10.75;;;2.38;;
52268;SDS011;38224;50.950;4.100;2022-08-21T10:11:02;11.20;;;2.38;;
52268;SDS011;38224;50.950;4.100;2022-08-21T10:13:32;10.48;;;2.38;;
52268;SDS011;38224;50.950;4.100;2022-08-21T10:21:46;10.52;;;2.90;;
52268;SDS011;38224;50.950;4.100;2022-08-21T10:24:19;11.85;;;2.58;;
52268;SDS011;38224;50.950;4.100;2022-08-21T10:34:48;10.43;;;2.22;;
52268;SDS011;38224;50.950;4.100;2022-08-21T10:38:00;11.40;;;2.25;;
52268;SDS011;38224;50.950;4.100;2022-08-21T10:40:14;10.20;;;2.40;;
52268;SDS011;38224;50.950;4.100;2022-08-21T10:48:08;12.73;;;2.45;;
52268;SDS011;38224;50.950;4.100;2022-08-21T10:50:41;13.98;;;2.58;;
52268;SDS011;38224;50.950;4.100;2022-08-21T10:56:01;13.30;;;2.35;;
52268;SDS011;38224;50.950;4.100;2022-08-21T11:00:56;9.15;;;2.28;;
52268;SDS011;38224;50.950;4.100;2022-08-21T11:03:24;9.10;;;2.50;;
52268;SDS011;38224;50.950;4.100;2022-08-21T11:06:02;8.88;;;2.28;;
52268;SDS011;38224;50.950;4.100;2022-08-21T11:08:31;13.50;;;2.58;;
52268;SDS011;38224;50.950;4.100;2022-08-21T11:13:29;9.97;;;2.77;;
52268;SDS011;38224;50.950;4.100;2022-08-21T11:18:26;13.90;;;3.13;;
52268;SDS011;38224;50.950;4.100;2022-08-21T11:26:39;15.07;;;3.10;;
52268;SDS011;38224;50.950;4.100;2022-08-21T11:29:09;11.60;;;2.58;;
52268;SDS011;38224;50.950;4.100;2022-08-21T11:31:42;11.52;;;3.05;;
52268;SDS011;38224;50.950;4.100;2022-08-21T11:36:41;9.83;;;2.27;;
52268;SDS011;38224;50.950;4.100;2022-08-21T11:39:30;23.00;;;3.53;;
52268;SDS011;38224;50.950;4.100;2022-08-21T11:42:48;11.82;;;2.58;;
52268;SDS011;38224;50.950;4.100;2022-08-21T11:49:43;8.60;;;2.22;;
52268;SDS011;38224;50.950;4.100;2022-08-21T11:54:54;7.07;;;2.70;;
52268;SDS011;38224;50.950;4.100;2022-08-21T12:02:13;10.33;;;2.77;;
52268;SDS011;38224;50.950;4.100;2022-08-21T12:04:44;13.35;;;2.42;;
52268;SDS011;38224;50.950;4.100;2022-08-21T12:07:11;7.72;;;1.80;;
52268;SDS011;38224;50.950;4.100;2022-08-21T12:09:37;10.07;;;2.88;;
52268;SDS011;38224;50.950;4.100;2022-08-21T12:12:21;11.85;;;2.85;;
52268;SDS011;38224;50.950;4.100;2022-08-21T12:14:48;8.52;;;2.20;;
52268;SDS011;38224;50.950;4.100;2022-08-21T12:17:19;7.75;;;2.33;;
52268;SDS011;38224;50.950;4.100;2022-08-21T12:19:56;8.45;;;2.15;;
52268;SDS011;38224;50.950;4.100;2022-08-21T12:22:21;12.73;;;2.97;;
52268;SDS011;38224;50.950;4.100;2022-08-21T12:24:50;8.70;;;1.97;;
52268;SDS011;38224;50.950;4.100;2022-08-21T12:27:29;11.65;;;2.50;;
52268;SDS011;38224;50.950;4.100;2022-08-21T12:30:03;11.55;;;2.95;;
52268;SDS011;38224;50.950;4.100;2022-08-21T12:32:30;14.05;;;3.13;;
52268;SDS011;38224;50.950;4.100;2022-08-21T12:35:06;11.68;;;2.78;;
52268;SDS011;38224;50.950;4.100;2022-08-21T12:37:39;14.68;;;2.97;;
52268;SDS011;38224;50.950;4.100;2022-08-21T12:40:18;11.27;;;2.72;;
52268;SDS011;38224;50.950;4.100;2022-08-21T12:42:46;12.05;;;2.63;;
52268;SDS011;38224;50.950;4.100;2022-08-21T12:45:18;8.63;;;2.65;;
52268;SDS011;38224;50.950;4.100;2022-08-21T12:47:48;9.73;;;2.20;;
52268;SDS011;38224;50.950;4.100;2022-08-21T12:50:19;11.70;;;2.42;;
52268;SDS011;38224;50.950;4.100;2022-08-21T12:52:48;10.20;;;2.47;;
52268;SDS011;38224;50.950;4.100;2022-08-21T12:55:25;8.65;;;2.75;;
52268;SDS011;38224;50.950;4.100;2022-08-21T12:57:50;7.53;;;1.90;;
52268;SDS011;38224;50.950;4.100;2022-08-21T13:00:20;10.73;;;2.40;;
52268;SDS011;38224;50.950;4.100;2022-08-21T13:02:46;12.35;;;2.33;;
52268;SDS011;38224;50.950;4.100;2022-08-21T13:05:13;12.00;;;2.72;;
52268;SDS011;38224;50.950;4.100;2022-08-21T13:07:42;12.43;;;2.78;;
52268;SDS011;38224;50.950;4.100;2022-08-21T13:10:28;10.48;;;2.58;;
52268;SDS011;38224;50.950;4.100;2022-08-21T13:12:55;10.20;;;2.53;;
52268;SDS011;38224;50.950;4.100;2022-08-21T13:15:25;12.82;;;2.88;;
52268;SDS011;38224;50.950;4.100;2022-08-21T13:17:51;9.88;;;2.63;;
52268;SDS011;38224;50.950;4.100;2022-08-21T13:20:23;11.13;;;2.85;;
52268;SDS011;38224;50.950;4.100;2022-08-21T13:25:15;9.30;;;2.22;;
52268;SDS011;38224;50.950;4.100;2022-08-21T13:27:41;7.68;;;2.50;;
52268;SDS011;38224;50.950;4.100;2022-08-21T13:32:33;8.15;;;2.08;;
52268;SDS011;38224;50.950;4.100;2022-08-21T13:35:07;7.95;;;2.20;;
52268;SDS011;38224;50.950;4.100;2022-08-21T13:37:32;13.40;;;3.05;;
52268;SDS011;38224;50.950;4.100;2022-08-21T13:39:57;12.07;;;2.70;;
52268;SDS011;38224;50.950;4.100;2022-08-21T13:42:23;13.10;;;2.73;;
52268;SDS011;38224;50.950;4.100;2022-08-21T13:44:50;9.18;;;2.88;;
52268;SDS011;38224;50.950;4.100;2022-08-21T13:47:16;10.48;;;3.10;;
52268;SDS011;38224;50.950;4.100;2022-08-21T13:49:45;9.98;;;2.60;;
52268;SDS011;38224;50.950;4.100;2022-08-21T13:52:15;15.98;;;2.85;;
52268;SDS011;38224;50.950;4.100;2022-08-21T13:54:40;12.20;;;2.75;;
52268;SDS011;38224;50.950;4.100;2022-08-21T13:57:18;10.55;;;3.03;;
52268;SDS011;38224;50.950;4.100;2022-08-21T13:59:43;8.82;;;2.60;;
52268;SDS011;38224;50.950;4.100;2022-08-21T14:02:19;8.18;;;2.20;;
52268;SDS011;38224;50.950;4.100;2022-08-21T14:04:54;11.02;;;2.95;;
52268;SDS011;38224;50.950;4.100;2022-08-21T14:07:20;8.73;;;2.28;;
52268;SDS011;38224;50.950;4.100;2022-08-21T14:09:49;8.90;;;2.55;;
52268;SDS011;38224;50.950;4.100;2022-08-21T14:12:32;9.32;;;2.45;;
52268;SDS011;38224;50.950;4.100;2022-08-21T14:15:01;13.68;;;2.75;;
52268;SDS011;38224;50.950;4.100;2022-08-21T14:17:37;15.52;;;3.10;;
52268;SDS011;38224;50.950;4.100;2022-08-21T14:20:04;11.00;;;2.22;;
52268;SDS011;38224;50.950;4.100;2022-08-21T14:25:06;10.15;;;2.60;;
52268;SDS011;38224;50.950;4.100;2022-08-21T14:27:33;8.02;;;2.22;;
52268;SDS011;38224;50.950;4.100;2022-08-21T14:30:00;16.70;;;3.38;;
52268;SDS011;38224;50.950;4.100;2022-08-21T14:32:27;11.70;;;2.88;;
52268;SDS011;38224;50.950;4.100;2022-08-21T14:34:54;9.63;;;2.50;;
52268;SDS011;38224;50.950;4.100;2022-08-21T14:37:20;13.45;;;2.70;;
52268;SDS011;38224;50.950;4.100;2022-08-21T14:39:45;8.40;;;2.85;;
52268;SDS011;38224;50.950;4.100;2022-08-21T14:42:11;11.53;;;2.50;;
52268;SDS011;38224;50.950;4.100;2022-08-21T14:44:36;13.52;;;2.40;;
52268;SDS011;38224;50.950;4.100;2022-08-21T14:47:02;11.23;;;2.58;;
52268;SDS011;38224;50.950;4.100;2022-08-21T14:49:27;11.77;;;2.75;;
52268;SDS011;38224;50.950;4.100;2022-08-21T14:51:54;10.40;;;3.30;;
52268;SDS011;38224;50.950;4.100;2022-08-21T14:54:26;15.25;;;3.08;;
52268;SDS011;38224;50.950;4.100;2022-08-21T14:56:51;12.90;;;3.03;;
52268;SDS011;38224;50.950;4.100;2022-08-21T14:59:16;7.50;;;2.10;;
52268;SDS011;38224;50.950;4.100;2022-08-21T15:01:42;14.33;;;2.80;;
52268;SDS011;38224;50.950;4.100;2022-08-21T15:04:07;7.87;;;2.60;;
52268;SDS011;38224;50.950;4.100;2022-08-21T15:06:32;10.40;;;2.40;;
52268;SDS011;38224;50.950;4.100;2022-08-21T15:08:57;9.02;;;2.30;;
52268;SDS011;38224;50.950;4.100;2022-08-21T15:11:23;13.52;;;2.55;;
52268;SDS011;38224;50.950;4.100;2022-08-21T15:13:52;10.85;;;2.47;;
52268;SDS011;38224;50.950;4.100;2022-08-21T15:16:18;11.57;;;2.70;;
52268;SDS011;38224;50.950;4.100;2022-08-21T15:18:43;8.93;;;2.63;;
52268;SDS011;38224;50.950;4.100;2022-08-21T15:21:08;8.75;;;2.83;;
52268;SDS011;38224;50.950;4.100;2022-08-21T15:23:34;9.32;;;2.60;;
52268;SDS011;38224;50.950;4.100;2022-08-21T15:26:00;11.52;;;2.60;;
52268;SDS011;38224;50.950;4.100;2022-08-21T15:28:25;9.00;;;2.10;;
52268;SDS011;38224;50.950;4.100;2022-08-21T15:30:50;9.00;;;2.38;;
52268;SDS011;38224;50.950;4.100;2022-08-21T15:33:16;12.47;;;2.43;;
52268;SDS011;38224;50.950;4.100;2022-08-21T15:35:42;14.85;;;2.65;;
52268;SDS011;38224;50.950;4.100;2022-08-21T15:38:08;10.38;;;3.03;;
52268;SDS011;38224;50.950;4.100;2022-08-21T15:40:34;11.07;;;2.58;;
52268;SDS011;38224;50.950;4.100;2022-08-21T15:43:01;8.93;;;2.50;;
52268;SDS011;38224;50.950;4.100;2022-08-21T15:45:26;8.73;;;2.45;;
52268;SDS011;38224;50.950;4.100;2022-08-21T15:47:52;15.75;;;2.95;;
52268;SDS011;38224;50.950;4.100;2022-08-21T15:50:18;9.73;;;2.42;;